sensor_id;sensor_type;location;lat;lon;timestamp;temperature;humidity
21861;DHT22;11095;48.066;8.540;2023-12-29T00:01:18;4.70;99.90
21861;DHT22;11095;48.066;8.540;2023-12-29T00:03:44;4.70;99.90
21861;DHT22;11095;48.066;8.540;2023-12-29T00:06:09;4.60;99.90
21861;DHT22;11095;48.066;8.540;2023-12-29T00:08:36;4.60;99.90
21861;DHT22;11095;48.066;8.540;2023-12-29T00:11:02;4.60;99.90
21861;DHT22;11095;48.066;8.540;2023-12-29T00:13:28;4.60;99.90
21861;DHT22;11095;48.066;8.540;2023-12-29T00:15:55;4.60;99.90
21861;DHT22;11095;48.066;8.540;2023-12-29T00:18:21;4.60;99.90
21861;DHT22;11095;48.066;8.540;2023-12-29T00:20:48;4.60;99.90
21861;DHT22;11095;48.066;8.540;2023-12-29T00:23:13;4.60;99.90
21861;DHT22;11095;48.066;8.540;2023-12-29T00:25:39;4.60;99.90
21861;DHT22;11095;48.066;8.540;2023-12-29T00:28:05;4.60;99.90
21861;DHT22;11095;48.066;8.540;2023-12-29T00:30:31;4.60;99.90
21861;DHT22;11095;48.066;8.540;2023-12-29T00:32:57;4.70;99.90
21861;DHT22;11095;48.066;8.540;2023-12-29T00:35:22;4.70;99.90
21861;DHT22;11095;48.066;8.540;2023-12-29T00:37:51;4.80;99.90
21861;DHT22;11095;48.066;8.540;2023-12-29T00:40:17;4.70;99.90
21861;DHT22;11095;48.066;8.540;2023-12-29T00:42:42;4.80;99.90
21861;DHT22;11095;48.066;8.540;2023-12-29T00:45:08;4.70;99.90
21861;DHT22;11095;48.066;8.540;2023-12-29T00:47:34;4.80;99.90
21861;DHT22;11095;48.066;8.540;2023-12-29T00:50:00;4.80;99.90
21861;DHT22;11095;48.066;8.540;2023-12-29T00:52:27;4.80;99.90
21861;DHT22;11095;48.066;8.540;2023-12-29T00:54:52;4.80;99.90
21861;DHT22;11095;48.066;8.540;2023-12-29T00:57:18;4.80;99.90
21861;DHT22;11095;48.066;8.540;2023-12-29T00:59:46;4.90;99.90
21861;DHT22;11095;48.066;8.540;2023-12-29T01:02:12;4.90;99.90
21861;DHT22;11095;48.066;8.540;2023-12-29T01:04:38;4.90;99.90
21861;DHT22;11095;48.066;8.540;2023-12-29T01:07:04;4.90;99.90
21861;DHT22;11095;48.066;8.540;2023-12-29T01:09:30;4.90;99.90
21861;DHT22;11095;48.066;8.540;2023-12-29T01:11:56;4.90;99.90
21861;DHT22;11095;48.066;8.540;2023-12-29T01:14:22;5.00;99.90
21861;DHT22;11095;48.066;8.540;2023-12-29T01:16:47;5.00;99.90
21861;DHT22;11095;48.066;8.540;2023-12-29T01:19:13;5.00;99.90
21861;DHT22;11095;48.066;8.540;2023-12-29T01:21:38;5.00;99.90
21861;DHT22;11095;48.066;8.540;2023-12-29T01:24:04;5.00;99.90
21861;DHT22;11095;48.066;8.540;2023-12-29T01:26:36;5.00;99.90
21861;DHT22;11095;48.066;8.540;2023-12-29T01:29:02;5.00;99.90
21861;DHT22;11095;48.066;8.540;2023-12-29T01:31:30;5.00;99.90
21861;DHT22;11095;48.066;8.540;2023-12-29T01:33:56;5.00;99.90
21861;DHT22;11095;48.066;8.540;2023-12-29T01:36:21;5.00;99.90
21861;DHT22;11095;48.066;8.540;2023-12-29T01:38:47;5.00;99.90
21861;DHT22;11095;48.066;8.540;2023-12-29T01:41:13;5.00;99.90
21861;DHT22;11095;48.066;8.540;2023-12-29T01:46:33;5.00;99.90
21861;DHT22;11095;48.066;8.540;2023-12-29T01:48:59;5.00;99.90
21861;DHT22;11095;48.066;8.540;2023-12-29T01:51:27;5.00;99.90
21861;DHT22;11095;48.066;8.540;2023-12-29T01:53:53;5.00;99.90
21861;DHT22;11095;48.066;8.540;2023-12-29T01:56:20;5.00;99.90
21861;DHT22;11095;48.066;8.540;2023-12-29T01:58:50;4.90;99.90
21861;DHT22;11095;48.066;8.540;2023-12-29T02:01:17;4.90;99.90
21861;DHT22;11095;48.066;8.540;2023-12-29T02:03:44;4.90;99.90
21861;DHT22;11095;48.066;8.540;2023-12-29T02:06:10;4.90;99.90
21861;DHT22;11095;48.066;8.540;2023-12-29T02:08:37;5.00;99.90
21861;DHT22;11095;48.066;8.540;2023-12-29T02:11:03;5.10;99.90
21861;DHT22;11095;48.066;8.540;2023-12-29T02:13:29;5.20;99.90
21861;DHT22;11095;48.066;8.540;2023-12-29T02:16:00;5.20;99.90
21861;DHT22;11095;48.066;8.540;2023-12-29T02:18:30;5.30;99.90
21861;DHT22;11095;48.066;8.540;2023-12-29T02:20:58;5.40;99.90
21861;DHT22;11095;48.066;8.540;2023-12-29T02:23:23;5.50;99.90
21861;DHT22;11095;48.066;8.540;2023-12-29T02:25:50;5.60;99.90
21861;DHT22;11095;48.066;8.540;2023-12-29T02:28:24;5.60;99.90
21861;DHT22;11095;48.066;8.540;2023-12-29T02:30:57;5.60;99.90
21861;DHT22;11095;48.066;8.540;2023-12-29T02:33:24;5.70;99.90
21861;DHT22;11095;48.066;8.540;2023-12-29T02:35:52;5.60;99.90
21861;DHT22;11095;48.066;8.540;2023-12-29T02:38:20;5.60;99.90
21861;DHT22;11095;48.066;8.540;2023-12-29T02:40:46;5.70;99.90
21861;DHT22;11095;48.066;8.540;2023-12-29T02:43:12;5.70;99.90
21861;DHT22;11095;48.066;8.540;2023-12-29T02:45:37;5.70;99.90
21861;DHT22;11095;48.066;8.540;2023-12-29T02:48:03;5.70;99.90
21861;DHT22;11095;48.066;8.540;2023-12-29T02:50:29;5.70;99.90
21861;DHT22;11095;48.066;8.540;2023-12-29T02:52:54;5.80;99.90
21861;DHT22;11095;48.066;8.540;2023-12-29T02:55:20;5.80;99.90
21861;DHT22;11095;48.066;8.540;2023-12-29T02:57:45;5.80;99.90
21861;DHT22;11095;48.066;8.540;2023-12-29T03:00:11;5.90;99.90
21861;DHT22;11095;48.066;8.540;2023-12-29T03:02:37;5.90;99.90
21861;DHT22;11095;48.066;8.540;2023-12-29T03:05:03;5.90;99.90
21861;DHT22;11095;48.066;8.540;2023-12-29T03:07:28;6.00;99.90
21861;DHT22;11095;48.066;8.540;2023-12-29T03:09:54;5.90;99.90
21861;DHT22;11095;48.066;8.540;2023-12-29T03:12:19;6.00;99.90
21861;DHT22;11095;48.066;8.540;2023-12-29T03:14:45;6.00;99.90
21861;DHT22;11095;48.066;8.540;2023-12-29T03:17:12;6.00;99.90
21861;DHT22;11095;48.066;8.540;2023-12-29T03:19:38;6.10;99.90
21861;DHT22;11095;48.066;8.540;2023-12-29T03:22:03;6.10;99.90
21861;DHT22;11095;48.066;8.540;2023-12-29T03:24:29;6.10;99.90
21861;DHT22;11095;48.066;8.540;2023-12-29T03:26:55;6.20;99.90
21861;DHT22;11095;48.066;8.540;2023-12-29T03:29:20;6.20;99.90
21861;DHT22;11095;48.066;8.540;2023-12-29T03:31:46;6.30;99.90
21861;DHT22;11095;48.066;8.540;2023-12-29T03:34:11;6.30;99.90
21861;DHT22;11095;48.066;8.540;2023-12-29T03:36:37;6.30;99.90
21861;DHT22;11095;48.066;8.540;2023-12-29T03:39:03;6.40;99.90
21861;DHT22;11095;48.066;8.540;2023-12-29T03:41:28;6.50;99.90
21861;DHT22;11095;48.066;8.540;2023-12-29T03:43:54;6.50;99.90
21861;DHT22;11095;48.066;8.540;2023-12-29T03:46:22;6.50;99.90
21861;DHT22;11095;48.066;8.540;2023-12-29T03:48:48;6.50;99.90
21861;DHT22;11095;48.066;8.540;2023-12-29T03:51:14;6.50;99.90
21861;DHT22;11095;48.066;8.540;2023-12-29T03:53:40;6.60;99.90
21861;DHT22;11095;48.066;8.540;2023-12-29T03:56:14;6.60;99.90
21861;DHT22;11095;48.066;8.540;2023-12-29T03:58:40;6.60;99.90
21861;DHT22;11095;48.066;8.540;2023-12-29T04:01:13;6.60;99.90
21861;DHT22;11095;48.066;8.540;2023-12-29T04:03:39;6.60;99.90
21861;DHT22;11095;48.066;8.540;2023-12-29T04:06:05;6.60;99.90
21861;DHT22;11095;48.066;8.540;2023-12-29T04:08:33;6.60;99.90
21861;DHT22;11095;48.066;8.540;2023-12-29T04:10:58;6.60;99.90
21861;DHT22;11095;48.066;8.540;2023-12-29T04:13:24;6.60;99.90
21861;DHT22;11095;48.066;8.540;2023-12-29T04:15:49;6.60;99.90
21861;DHT22;11095;48.066;8.540;2023-12-29T04:18:15;6.60;99.90
21861;DHT22;11095;48.066;8.540;2023-12-29T04:20:40;6.60;99.90
21861;DHT22;11095;48.066;8.540;2023-12-29T04:23:06;6.70;99.90
21861;DHT22;11095;48.066;8.540;2023-12-29T04:25:33;6.70;99.90
21861;DHT22;11095;48.066;8.540;2023-12-29T04:27:59;6.70;99.90
21861;DHT22;11095;48.066;8.540;2023-12-29T04:30:24;6.80;99.90
21861;DHT22;11095;48.066;8.540;2023-12-29T04:32:50;6.80;99.90
21861;DHT22;11095;48.066;8.540;2023-12-29T04:35:16;6.80;99.90
21861;DHT22;11095;48.066;8.540;2023-12-29T04:37:44;6.80;99.90
21861;DHT22;11095;48.066;8.540;2023-12-29T04:40:10;6.90;99.90
21861;DHT22;11095;48.066;8.540;2023-12-29T04:42:36;6.90;99.90
21861;DHT22;11095;48.066;8.540;2023-12-29T04:45:01;6.90;99.90
21861;DHT22;11095;48.066;8.540;2023-12-29T04:47:27;6.90;99.90
21861;DHT22;11095;48.066;8.540;2023-12-29T04:49:52;6.90;99.90
21861;DHT22;11095;48.066;8.540;2023-12-29T04:52:18;7.00;99.90
21861;DHT22;11095;48.066;8.540;2023-12-29T04:54:43;7.00;99.90
21861;DHT22;11095;48.066;8.540;2023-12-29T04:57:09;7.00;99.90
21861;DHT22;11095;48.066;8.540;2023-12-29T04:59:34;7.00;99.90
21861;DHT22;11095;48.066;8.540;2023-12-29T05:02:00;7.00;99.90
21861;DHT22;11095;48.066;8.540;2023-12-29T05:04:26;7.00;99.90
21861;DHT22;11095;48.066;8.540;2023-12-29T05:06:51;7.00;99.90
21861;DHT22;11095;48.066;8.540;2023-12-29T05:09:17;7.00;99.90
21861;DHT22;11095;48.066;8.540;2023-12-29T05:11:43;7.00;99.90
21861;DHT22;11095;48.066;8.540;2023-12-29T05:14:08;7.10;99.90
21861;DHT22;11095;48.066;8.540;2023-12-29T05:16:34;7.00;99.90
21861;DHT22;11095;48.066;8.540;2023-12-29T05:19:00;7.10;99.90
21861;DHT22;11095;48.066;8.540;2023-12-29T05:21:26;7.10;99.90
21861;DHT22;11095;48.066;8.540;2023-12-29T05:23:52;7.10;99.90
21861;DHT22;11095;48.066;8.540;2023-12-29T05:26:18;7.10;99.90
21861;DHT22;11095;48.066;8.540;2023-12-29T05:28:43;7.10;99.90
21861;DHT22;11095;48.066;8.540;2023-12-29T05:31:09;7.10;99.90
21861;DHT22;11095;48.066;8.540;2023-12-29T05:33:35;7.10;99.90
21861;DHT22;11095;48.066;8.540;2023-12-29T05:36:08;7.10;99.90
21861;DHT22;11095;48.066;8.540;2023-12-29T05:38:35;7.10;99.90
21861;DHT22;11095;48.066;8.540;2023-12-29T05:41:03;7.10;99.90
21861;DHT22;11095;48.066;8.540;2023-12-29T05:43:31;7.10;99.90
21861;DHT22;11095;48.066;8.540;2023-12-29T05:45:58;7.10;99.90
21861;DHT22;11095;48.066;8.540;2023-12-29T05:48:24;7.10;99.90
21861;DHT22;11095;48.066;8.540;2023-12-29T05:50:50;7.10;99.90
21861;DHT22;11095;48.066;8.540;2023-12-29T05:53:15;7.10;99.90
21861;DHT22;11095;48.066;8.540;2023-12-29T05:55:41;7.10;99.90
21861;DHT22;11095;48.066;8.540;2023-12-29T05:58:07;7.00;99.90
21861;DHT22;11095;48.066;8.540;2023-12-29T06:00:32;7.00;99.90
21861;DHT22;11095;48.066;8.540;2023-12-29T06:02:58;7.00;99.90
21861;DHT22;11095;48.066;8.540;2023-12-29T06:05:24;7.00;99.90
21861;DHT22;11095;48.066;8.540;2023-12-29T06:07:50;7.00;99.90
21861;DHT22;11095;48.066;8.540;2023-12-29T06:10:16;7.00;99.90
21861;DHT22;11095;48.066;8.540;2023-12-29T06:12:41;7.00;99.90
21861;DHT22;11095;48.066;8.540;2023-12-29T06:15:07;7.00;99.90
21861;DHT22;11095;48.066;8.540;2023-12-29T06:17:33;7.00;99.90
21861;DHT22;11095;48.066;8.540;2023-12-29T06:20:00;7.00;99.90
21861;DHT22;11095;48.066;8.540;2023-12-29T06:22:27;7.00;99.90
21861;DHT22;11095;48.066;8.540;2023-12-29T06:24:53;7.00;99.90
21861;DHT22;11095;48.066;8.540;2023-12-29T06:27:18;7.00;99.90
21861;DHT22;11095;48.066;8.540;2023-12-29T06:29:44;7.00;99.90
21861;DHT22;11095;48.066;8.540;2023-12-29T06:32:09;7.00;99.90
21861;DHT22;11095;48.066;8.540;2023-12-29T06:34:35;7.00;99.90
21861;DHT22;11095;48.066;8.540;2023-12-29T06:37:00;7.00;99.90
21861;DHT22;11095;48.066;8.540;2023-12-29T06:39:26;6.90;99.90
21861;DHT22;11095;48.066;8.540;2023-12-29T06:41:52;6.90;99.90
21861;DHT22;11095;48.066;8.540;2023-12-29T06:44:17;6.70;99.90
21861;DHT22;11095;48.066;8.540;2023-12-29T06:46:43;6.60;99.90
21861;DHT22;11095;48.066;8.540;2023-12-29T06:49:08;6.50;99.90
21861;DHT22;11095;48.066;8.540;2023-12-29T06:51:34;6.40;99.90
21861;DHT22;11095;48.066;8.540;2023-12-29T06:54:01;6.30;99.90
21861;DHT22;11095;48.066;8.540;2023-12-29T06:56:27;6.30;99.90
21861;DHT22;11095;48.066;8.540;2023-12-29T06:58:52;6.20;99.90
21861;DHT22;11095;48.066;8.540;2023-12-29T07:01:18;6.20;99.90
21861;DHT22;11095;48.066;8.540;2023-12-29T07:03:44;6.10;99.90
21861;DHT22;11095;48.066;8.540;2023-12-29T07:06:10;6.10;99.90
21861;DHT22;11095;48.066;8.540;2023-12-29T07:08:36;6.10;99.90
21861;DHT22;11095;48.066;8.540;2023-12-29T07:11:02;6.00;99.90
21861;DHT22;11095;48.066;8.540;2023-12-29T07:13:28;6.00;99.90
21861;DHT22;11095;48.066;8.540;2023-12-29T07:15:54;6.00;99.90
21861;DHT22;11095;48.066;8.540;2023-12-29T07:18:19;6.00;99.90
21861;DHT22;11095;48.066;8.540;2023-12-29T07:20:45;6.00;99.90
21861;DHT22;11095;48.066;8.540;2023-12-29T07:23:10;6.00;99.90
21861;DHT22;11095;48.066;8.540;2023-12-29T07:25:36;6.00;99.90
21861;DHT22;11095;48.066;8.540;2023-12-29T07:28:01;6.00;99.90
21861;DHT22;11095;48.066;8.540;2023-12-29T07:30:27;6.00;99.90
21861;DHT22;11095;48.066;8.540;2023-12-29T07:32:52;6.00;99.90
21861;DHT22;11095;48.066;8.540;2023-12-29T07:35:18;6.00;99.90
21861;DHT22;11095;48.066;8.540;2023-12-29T07:37:46;6.00;99.90
21861;DHT22;11095;48.066;8.540;2023-12-29T07:40:12;6.00;99.90
21861;DHT22;11095;48.066;8.540;2023-12-29T07:42:39;6.00;99.90
21861;DHT22;11095;48.066;8.540;2023-12-29T07:45:05;6.00;99.90
21861;DHT22;11095;48.066;8.540;2023-12-29T07:47:32;6.00;99.90
21861;DHT22;11095;48.066;8.540;2023-12-29T07:49:57;5.90;99.90
21861;DHT22;11095;48.066;8.540;2023-12-29T07:52:23;5.90;99.90
21861;DHT22;11095;48.066;8.540;2023-12-29T07:54:48;5.90;99.90
21861;DHT22;11095;48.066;8.540;2023-12-29T07:57:14;5.90;99.90
21861;DHT22;11095;48.066;8.540;2023-12-29T07:59:40;5.90;99.90
21861;DHT22;11095;48.066;8.540;2023-12-29T08:02:06;5.90;99.90
21861;DHT22;11095;48.066;8.540;2023-12-29T08:04:31;5.90;99.90
21861;DHT22;11095;48.066;8.540;2023-12-29T08:06:57;6.00;99.90
21861;DHT22;11095;48.066;8.540;2023-12-29T08:09:22;5.90;99.90
21861;DHT22;11095;48.066;8.540;2023-12-29T08:11:49;6.00;99.90
21861;DHT22;11095;48.066;8.540;2023-12-29T08:14:15;6.00;99.90
21861;DHT22;11095;48.066;8.540;2023-12-29T08:16:41;6.00;99.90
21861;DHT22;11095;48.066;8.540;2023-12-29T08:19:07;6.00;99.90
21861;DHT22;11095;48.066;8.540;2023-12-29T08:21:33;6.00;99.90
21861;DHT22;11095;48.066;8.540;2023-12-29T08:23:59;6.10;99.90
21861;DHT22;11095;48.066;8.540;2023-12-29T08:26:24;6.10;99.90
21861;DHT22;11095;48.066;8.540;2023-12-29T08:28:51;6.00;99.90
21861;DHT22;11095;48.066;8.540;2023-12-29T08:31:18;6.10;99.90
21861;DHT22;11095;48.066;8.540;2023-12-29T08:33:44;6.10;99.90
21861;DHT22;11095;48.066;8.540;2023-12-29T08:36:12;6.10;99.90
21861;DHT22;11095;48.066;8.540;2023-12-29T08:38:38;6.20;99.90
21861;DHT22;11095;48.066;8.540;2023-12-29T08:41:04;6.20;99.90
21861;DHT22;11095;48.066;8.540;2023-12-29T08:43:30;6.20;99.90
21861;DHT22;11095;48.066;8.540;2023-12-29T08:45:56;6.20;99.90
21861;DHT22;11095;48.066;8.540;2023-12-29T08:48:22;6.30;99.90
21861;DHT22;11095;48.066;8.540;2023-12-29T08:50:48;6.30;99.90
21861;DHT22;11095;48.066;8.540;2023-12-29T08:53:14;6.30;99.90
21861;DHT22;11095;48.066;8.540;2023-12-29T08:55:41;6.40;99.90
21861;DHT22;11095;48.066;8.540;2023-12-29T08:58:06;6.40;99.90
21861;DHT22;11095;48.066;8.540;2023-12-29T09:00:32;6.40;99.90
21861;DHT22;11095;48.066;8.540;2023-12-29T09:02:57;6.50;99.90
21861;DHT22;11095;48.066;8.540;2023-12-29T09:05:23;6.50;99.90
21861;DHT22;11095;48.066;8.540;2023-12-29T09:07:48;6.50;99.90
21861;DHT22;11095;48.066;8.540;2023-12-29T09:10:14;6.60;99.90
21861;DHT22;11095;48.066;8.540;2023-12-29T09:12:40;6.70;99.90
21861;DHT22;11095;48.066;8.540;2023-12-29T09:15:07;6.70;99.90
21861;DHT22;11095;48.066;8.540;2023-12-29T09:17:33;6.80;99.90
21861;DHT22;11095;48.066;8.540;2023-12-29T09:19:58;6.90;99.90
21861;DHT22;11095;48.066;8.540;2023-12-29T09:22:24;6.90;99.90
21861;DHT22;11095;48.066;8.540;2023-12-29T09:24:50;7.00;99.90
21861;DHT22;11095;48.066;8.540;2023-12-29T09:27:15;7.10;99.90
21861;DHT22;11095;48.066;8.540;2023-12-29T09:29:41;7.10;99.90
21861;DHT22;11095;48.066;8.540;2023-12-29T09:32:07;7.20;99.90
21861;DHT22;11095;48.066;8.540;2023-12-29T09:34:32;7.30;99.90
21861;DHT22;11095;48.066;8.540;2023-12-29T09:36:58;7.40;99.90
21861;DHT22;11095;48.066;8.540;2023-12-29T09:39:23;7.70;99.90
21861;DHT22;11095;48.066;8.540;2023-12-29T09:41:52;8.00;99.90
21861;DHT22;11095;48.066;8.540;2023-12-29T09:44:20;8.40;99.90
21861;DHT22;11095;48.066;8.540;2023-12-29T09:46:49;9.40;99.90
21861;DHT22;11095;48.066;8.540;2023-12-29T09:49:16;10.40;99.90
21861;DHT22;11095;48.066;8.540;2023-12-29T09:51:43;10.90;99.90
21861;DHT22;11095;48.066;8.540;2023-12-29T09:54:09;12.00;99.90
21861;DHT22;11095;48.066;8.540;2023-12-29T09:56:37;13.10;99.90
21861;DHT22;11095;48.066;8.540;2023-12-29T09:59:03;13.40;99.90
21861;DHT22;11095;48.066;8.540;2023-12-29T10:01:30;13.60;99.90
21861;DHT22;11095;48.066;8.540;2023-12-29T10:03:56;13.40;99.90
21861;DHT22;11095;48.066;8.540;2023-12-29T10:06:24;12.80;99.90
21861;DHT22;11095;48.066;8.540;2023-12-29T10:08:50;12.10;99.90
21861;DHT22;11095;48.066;8.540;2023-12-29T10:11:20;11.70;99.90
21861;DHT22;11095;48.066;8.540;2023-12-29T10:13:50;11.40;99.90
21861;DHT22;11095;48.066;8.540;2023-12-29T10:16:32;11.20;99.90
21861;DHT22;11095;48.066;8.540;2023-12-29T10:19:27;11.10;99.90
21861;DHT22;11095;48.066;8.540;2023-12-29T10:22:03;10.80;99.90
21861;DHT22;11095;48.066;8.540;2023-12-29T10:24:32;10.60;99.90
21861;DHT22;11095;48.066;8.540;2023-12-29T10:26:58;10.30;99.90
21861;DHT22;11095;48.066;8.540;2023-12-29T10:29:24;10.10;99.90
21861;DHT22;11095;48.066;8.540;2023-12-29T10:31:50;9.90;99.90
21861;DHT22;11095;48.066;8.540;2023-12-29T10:34:23;9.60;99.90
21861;DHT22;11095;48.066;8.540;2023-12-29T10:36:56;9.50;99.90
21861;DHT22;11095;48.066;8.540;2023-12-29T10:39:22;9.30;99.90
21861;DHT22;11095;48.066;8.540;2023-12-29T10:41:48;9.10;99.90
21861;DHT22;11095;48.066;8.540;2023-12-29T10:44:13;9.00;99.90
21861;DHT22;11095;48.066;8.540;2023-12-29T10:46:39;8.90;99.90
21861;DHT22;11095;48.066;8.540;2023-12-29T10:49:12;8.80;99.90
21861;DHT22;11095;48.066;8.540;2023-12-29T10:51:38;8.70;99.90
21861;DHT22;11095;48.066;8.540;2023-12-29T10:54:05;8.60;99.90
21861;DHT22;11095;48.066;8.540;2023-12-29T10:56:31;8.60;99.90
21861;DHT22;11095;48.066;8.540;2023-12-29T10:59:00;8.50;99.90
21861;DHT22;11095;48.066;8.540;2023-12-29T11:01:28;8.40;99.90
21861;DHT22;11095;48.066;8.540;2023-12-29T11:04:05;8.40;99.90
21861;DHT22;11095;48.066;8.540;2023-12-29T11:06:51;8.40;99.90
21861;DHT22;11095;48.066;8.540;2023-12-29T11:09:30;8.40;99.90
21861;DHT22;11095;48.066;8.540;2023-12-29T11:12:05;8.40;99.90
21861;DHT22;11095;48.066;8.540;2023-12-29T11:14:34;8.40;99.90
21861;DHT22;11095;48.066;8.540;2023-12-29T11:17:00;8.50;99.90
21861;DHT22;11095;48.066;8.540;2023-12-29T11:19:26;8.60;99.90
21861;DHT22;11095;48.066;8.540;2023-12-29T11:21:54;8.60;99.90
21861;DHT22;11095;48.066;8.540;2023-12-29T11:24:20;8.70;99.90
21861;DHT22;11095;48.066;8.540;2023-12-29T11:26:45;8.90;99.90
21861;DHT22;11095;48.066;8.540;2023-12-29T11:29:12;9.10;99.90
21861;DHT22;11095;48.066;8.540;2023-12-29T11:31:38;9.20;99.90
21861;DHT22;11095;48.066;8.540;2023-12-29T11:34:35;9.40;99.90
21861;DHT22;11095;48.066;8.540;2023-12-29T11:37:36;9.50;99.90
21861;DHT22;11095;48.066;8.540;2023-12-29T11:40:18;9.70;99.90
21861;DHT22;11095;48.066;8.540;2023-12-29T11:42:45;9.80;99.90
21861;DHT22;11095;48.066;8.540;2023-12-29T11:45:29;10.00;99.90
21861;DHT22;11095;48.066;8.540;2023-12-29T11:47:55;10.10;99.90
21861;DHT22;11095;48.066;8.540;2023-12-29T11:50:48;10.20;99.90
21861;DHT22;11095;48.066;8.540;2023-12-29T11:53:31;10.20;99.90
21861;DHT22;11095;48.066;8.540;2023-12-29T11:55:57;10.20;99.90
21861;DHT22;11095;48.066;8.540;2023-12-29T11:58:26;10.30;99.90
21861;DHT22;11095;48.066;8.540;2023-12-29T12:00:55;10.40;99.90
21861;DHT22;11095;48.066;8.540;2023-12-29T12:03:25;10.50;99.90
21861;DHT22;11095;48.066;8.540;2023-12-29T12:05:53;10.50;99.90
21861;DHT22;11095;48.066;8.540;2023-12-29T12:08:35;10.60;99.90
21861;DHT22;11095;48.066;8.540;2023-12-29T12:14:01;10.70;99.90
21861;DHT22;11095;48.066;8.540;2023-12-29T12:19:11;10.80;99.90
21861;DHT22;11095;48.066;8.540;2023-12-29T12:21:37;10.80;99.90
21861;DHT22;11095;48.066;8.540;2023-12-29T12:24:06;10.80;99.90
21861;DHT22;11095;48.066;8.540;2023-12-29T12:26:33;10.70;99.90
21861;DHT22;11095;48.066;8.540;2023-12-29T12:29:00;10.70;99.90
21861;DHT22;11095;48.066;8.540;2023-12-29T12:31:25;10.60;99.90
21861;DHT22;11095;48.066;8.540;2023-12-29T12:33:59;10.70;99.90
21861;DHT22;11095;48.066;8.540;2023-12-29T12:36:28;10.70;99.90
21861;DHT22;11095;48.066;8.540;2023-12-29T12:38:55;10.70;99.90
21861;DHT22;11095;48.066;8.540;2023-12-29T12:41:24;10.70;99.90
21861;DHT22;11095;48.066;8.540;2023-12-29T12:44:08;10.60;99.90
21861;DHT22;11095;48.066;8.540;2023-12-29T12:46:35;10.70;99.90
21861;DHT22;11095;48.066;8.540;2023-12-29T12:49:04;10.70;99.90
21861;DHT22;11095;48.066;8.540;2023-12-29T12:51:34;10.60;99.90
21861;DHT22;11095;48.066;8.540;2023-12-29T12:54:00;10.60;99.90
21861;DHT22;11095;48.066;8.540;2023-12-29T12:56:26;10.60;99.90
21861;DHT22;11095;48.066;8.540;2023-12-29T12:58:55;10.60;99.90
21861;DHT22;11095;48.066;8.540;2023-12-29T13:01:22;10.60;99.90
21861;DHT22;11095;48.066;8.540;2023-12-29T13:03:47;10.50;99.90
21861;DHT22;11095;48.066;8.540;2023-12-29T13:06:14;10.60;99.90
21861;DHT22;11095;48.066;8.540;2023-12-29T13:08:39;10.50;99.90
21861;DHT22;11095;48.066;8.540;2023-12-29T13:11:06;10.50;99.90
21861;DHT22;11095;48.066;8.540;2023-12-29T13:13:39;10.50;99.90
21861;DHT22;11095;48.066;8.540;2023-12-29T13:16:05;10.50;99.90
21861;DHT22;11095;48.066;8.540;2023-12-29T13:18:31;10.50;99.90
21861;DHT22;11095;48.066;8.540;2023-12-29T13:20:57;10.40;99.90
21861;DHT22;11095;48.066;8.540;2023-12-29T13:23:29;10.30;99.90
21861;DHT22;11095;48.066;8.540;2023-12-29T13:25:57;10.30;99.90
21861;DHT22;11095;48.066;8.540;2023-12-29T13:28:25;10.30;99.90
21861;DHT22;11095;48.066;8.540;2023-12-29T13:30:51;10.30;99.90
21861;DHT22;11095;48.066;8.540;2023-12-29T13:36:28;10.30;99.90
21861;DHT22;11095;48.066;8.540;2023-12-29T13:39:07;10.30;99.90
21861;DHT22;11095;48.066;8.540;2023-12-29T13:41:35;10.40;99.90
21861;DHT22;11095;48.066;8.540;2023-12-29T13:44:01;10.30;99.90
21861;DHT22;11095;48.066;8.540;2023-12-29T13:46:28;10.30;99.90
21861;DHT22;11095;48.066;8.540;2023-12-29T13:48:55;10.40;99.90
21861;DHT22;11095;48.066;8.540;2023-12-29T13:51:25;10.50;99.90
21861;DHT22;11095;48.066;8.540;2023-12-29T13:54:01;10.50;99.90
21861;DHT22;11095;48.066;8.540;2023-12-29T13:56:27;10.50;99.90
21861;DHT22;11095;48.066;8.540;2023-12-29T13:58:53;10.50;99.90
21861;DHT22;11095;48.066;8.540;2023-12-29T14:01:18;10.50;99.90
21861;DHT22;11095;48.066;8.540;2023-12-29T14:03:54;10.50;99.90
21861;DHT22;11095;48.066;8.540;2023-12-29T14:06:28;10.50;99.90
21861;DHT22;11095;48.066;8.540;2023-12-29T14:08:55;10.50;99.90
21861;DHT22;11095;48.066;8.540;2023-12-29T14:11:22;10.50;99.90
21861;DHT22;11095;48.066;8.540;2023-12-29T14:13:48;10.50;99.90
21861;DHT22;11095;48.066;8.540;2023-12-29T14:16:14;10.40;99.90
21861;DHT22;11095;48.066;8.540;2023-12-29T14:21:27;10.30;99.90
21861;DHT22;11095;48.066;8.540;2023-12-29T14:24:10;10.20;99.90
21861;DHT22;11095;48.066;8.540;2023-12-29T14:26:40;10.10;99.90
21861;DHT22;11095;48.066;8.540;2023-12-29T14:29:08;10.00;99.90
21861;DHT22;11095;48.066;8.540;2023-12-29T14:31:36;9.90;99.90
21861;DHT22;11095;48.066;8.540;2023-12-29T14:34:03;9.90;99.90
21861;DHT22;11095;48.066;8.540;2023-12-29T14:36:33;9.80;99.90
21861;DHT22;11095;48.066;8.540;2023-12-29T14:38:59;9.70;99.90
21861;DHT22;11095;48.066;8.540;2023-12-29T14:41:25;9.60;99.90
21861;DHT22;11095;48.066;8.540;2023-12-29T14:43:51;9.50;99.90
21861;DHT22;11095;48.066;8.540;2023-12-29T14:46:17;9.50;99.90
21861;DHT22;11095;48.066;8.540;2023-12-29T14:48:43;9.50;99.90
21861;DHT22;11095;48.066;8.540;2023-12-29T14:51:08;9.40;99.90
21861;DHT22;11095;48.066;8.540;2023-12-29T14:53:34;9.30;99.90
21861;DHT22;11095;48.066;8.540;2023-12-29T14:56:00;9.30;99.90
21861;DHT22;11095;48.066;8.540;2023-12-29T14:58:25;9.30;99.90
21861;DHT22;11095;48.066;8.540;2023-12-29T15:00:51;9.20;99.90
21861;DHT22;11095;48.066;8.540;2023-12-29T15:03:17;9.20;99.90
21861;DHT22;11095;48.066;8.540;2023-12-29T15:05:44;9.20;99.90
21861;DHT22;11095;48.066;8.540;2023-12-29T15:08:10;9.20;99.90
21861;DHT22;11095;48.066;8.540;2023-12-29T15:10:35;9.10;99.90
21861;DHT22;11095;48.066;8.540;2023-12-29T15:13:01;9.10;99.90
21861;DHT22;11095;48.066;8.540;2023-12-29T15:15:27;9.00;99.90
21861;DHT22;11095;48.066;8.540;2023-12-29T15:17:53;9.00;99.90
21861;DHT22;11095;48.066;8.540;2023-12-29T15:20:18;8.90;99.90
21861;DHT22;11095;48.066;8.540;2023-12-29T15:22:44;8.90;99.90
21861;DHT22;11095;48.066;8.540;2023-12-29T15:25:11;8.90;99.90
21861;DHT22;11095;48.066;8.540;2023-12-29T15:27:37;8.90;99.90
21861;DHT22;11095;48.066;8.540;2023-12-29T15:30:03;8.90;99.90
21861;DHT22;11095;48.066;8.540;2023-12-29T15:32:28;8.90;99.90
21861;DHT22;11095;48.066;8.540;2023-12-29T15:34:54;8.90;99.90
21861;DHT22;11095;48.066;8.540;2023-12-29T15:37:20;8.90;99.90
21861;DHT22;11095;48.066;8.540;2023-12-29T15:39:45;8.90;99.90
21861;DHT22;11095;48.066;8.540;2023-12-29T15:42:11;8.90;99.90
21861;DHT22;11095;48.066;8.540;2023-12-29T15:44:36;8.90;99.90
21861;DHT22;11095;48.066;8.540;2023-12-29T15:47:02;8.80;99.90
21861;DHT22;11095;48.066;8.540;2023-12-29T15:49:28;8.90;99.90
21861;DHT22;11095;48.066;8.540;2023-12-29T15:51:53;8.80;99.90
21861;DHT22;11095;48.066;8.540;2023-12-29T15:54:19;8.80;99.90
21861;DHT22;11095;48.066;8.540;2023-12-29T15:56:44;8.80;99.90